createdAt,value
2023-07-03T00:02:16.491Z,12.62
2023-07-03T00:05:13.508Z,12.61
2023-07-03T00:08:16.563Z,12.80
2023-07-03T00:11:13.529Z,12.39
2023-07-03T00:14:10.630Z,12.58
2023-07-03T00:17:11.788Z,12.49
2023-07-03T00:20:14.876Z,12.34
2023-07-03T00:23:11.731Z,12.15
2023-07-03T00:26:08.593Z,12.30
2023-07-03T00:29:06.120Z,12.15
2023-07-03T00:32:03.239Z,12.01
2023-07-03T00:35:00.160Z,11.82
2023-07-03T00:37:57.045Z,12.08
2023-07-03T00:40:53.915Z,11.95
2023-07-03T00:43:50.781Z,11.89
2023-07-03T00:46:51.869Z,11.98
2023-07-03T00:49:49.907Z,11.98
2023-07-03T00:52:51.031Z,11.88
2023-07-03T00:55:48.041Z,12.04
2023-07-03T00:58:45.047Z,11.89
2023-07-03T01:02:12.312Z,11.99
2023-07-03T01:05:30.527Z,11.73
2023-07-03T01:08:27.999Z,11.68
2023-07-03T01:11:25.787Z,11.55
2023-07-03T01:14:25.015Z,11.55
2023-07-03T01:17:24.459Z,11.43
2023-07-03T01:20:24.424Z,11.56
2023-07-03T01:23:42.149Z,11.44
2023-07-03T01:26:42.013Z,11.47
2023-07-03T01:29:41.219Z,11.45
2023-07-03T01:32:39.276Z,11.21
2023-07-03T01:35:36.737Z,11.30
2023-07-03T01:38:35.136Z,11.27
2023-07-03T01:41:32.584Z,11.20
2023-07-03T01:44:29.434Z,11.27
2023-07-03T01:47:26.303Z,11.08
2023-07-03T01:50:27.938Z,11.23
2023-07-03T01:53:32.252Z,11.04
2023-07-03T01:56:38.245Z,11.07
2023-07-03T01:59:37.079Z,10.93
2023-07-03T02:02:35.581Z,10.94
2023-07-03T02:05:37.555Z,10.99
2023-07-03T02:08:34.612Z,10.87
2023-07-03T02:11:31.721Z,10.67
2023-07-03T02:14:28.559Z,10.75
2023-07-03T02:17:25.675Z,10.83
2023-07-03T02:20:22.681Z,10.87
2023-07-03T02:23:19.587Z,10.79
2023-07-03T02:26:16.693Z,10.67
2023-07-03T02:29:13.620Z,10.64
2023-07-03T02:32:13.015Z,10.52
2023-07-03T02:35:11.569Z,10.34
2023-07-03T02:38:09.936Z,10.68
2023-07-03T02:41:06.783Z,10.72
2023-07-03T02:44:03.981Z,10.58
2023-07-03T02:47:00.908Z,10.63
2023-07-03T02:49:57.813Z,10.46
2023-07-03T02:52:54.716Z,10.49
2023-07-03T02:55:54.460Z,10.07
2023-07-03T02:58:51.335Z,10.04
2023-07-03T03:01:48.216Z,10.01
2023-07-03T03:04:47.087Z,10.10
2023-07-03T03:07:43.966Z,10.08
2023-07-03T03:10:40.809Z,10.28
2023-07-03T03:13:37.680Z,10.09
2023-07-03T03:16:35.071Z,9.97
2023-07-03T03:19:31.999Z,10.20
2023-07-03T03:22:28.847Z,10.29
2023-07-03T03:25:26.299Z,10.13
2023-07-03T03:28:23.165Z,10.20
2023-07-03T03:31:20.444Z,9.99
2023-07-03T03:34:17.400Z,10.23
2023-07-03T03:37:14.249Z,10.34
2023-07-03T03:40:11.642Z,10.29
2023-07-03T03:43:08.467Z,10.31
2023-07-03T03:46:05.460Z,10.31
2023-07-03T03:49:02.545Z,10.40
2023-07-03T03:51:59.464Z,10.42
2023-07-03T03:54:56.347Z,10.39
2023-07-03T03:57:53.865Z,10.19
2023-07-03T04:00:53.336Z,10.70
2023-07-03T04:03:50.224Z,10.59
2023-07-03T04:06:47.101Z,10.37
2023-07-03T04:09:43.942Z,10.67
2023-07-03T04:12:40.792Z,10.74
2023-07-03T04:15:52.865Z,10.60
2023-07-03T04:18:49.983Z,10.95
2023-07-03T04:21:46.929Z,11.04
2023-07-03T04:24:43.758Z,10.91
2023-07-03T04:27:40.670Z,11.07
2023-07-03T04:30:37.548Z,11.49
2023-07-03T04:33:34.777Z,11.14
2023-07-03T04:36:31.677Z,11.62
2023-07-03T04:39:30.173Z,11.60
2023-07-03T04:42:27.011Z,11.45
2023-07-03T04:45:25.994Z,12.00
2023-07-03T04:48:22.872Z,12.11
2023-07-03T04:51:20.623Z,12.25
2023-07-03T04:54:17.467Z,12.20
2023-07-03T04:57:14.311Z,12.34
2023-07-03T05:00:16.401Z,12.42
2023-07-03T05:03:13.448Z,12.35
2023-07-03T05:06:11.906Z,12.48
2023-07-03T05:09:09.319Z,12.48
2023-07-03T05:12:06.870Z,12.57
2023-07-03T05:15:08.341Z,12.63
2023-07-03T05:18:05.364Z,12.77
2023-07-03T05:21:02.577Z,12.84
2023-07-03T05:23:59.443Z,12.74
2023-07-03T05:26:56.413Z,12.89
2023-07-03T05:29:53.371Z,13.02
2023-07-03T05:32:51.498Z,13.15
2023-07-03T05:35:50.977Z,13.13
2023-07-03T05:38:48.168Z,13.25
2023-07-03T05:41:45.016Z,13.43
2023-07-03T05:44:42.451Z,13.44
2023-07-03T05:47:39.481Z,13.53
2023-07-03T05:50:36.384Z,13.49
2023-07-03T05:53:33.233Z,13.74
2023-07-03T05:56:30.129Z,13.83
2023-07-03T05:59:27.730Z,13.82
2023-07-03T06:02:24.623Z,13.98
2023-07-03T06:05:22.344Z,13.84
2023-07-03T06:08:19.304Z,13.94
2023-07-03T06:11:16.154Z,13.83
2023-07-03T06:14:18.645Z,14.19
2023-07-03T06:17:15.690Z,13.99
2023-07-03T06:20:13.042Z,14.21
2023-07-03T06:23:09.999Z,14.21
2023-07-03T06:26:06.841Z,14.34
2023-07-03T06:29:04.030Z,14.34
2023-07-03T06:32:01.113Z,14.44
2023-07-03T06:34:58.355Z,14.62
2023-07-03T06:37:57.276Z,14.66
2023-07-03T06:41:00.646Z,14.81
2023-07-03T06:43:58.206Z,14.84
2023-07-03T06:46:55.210Z,14.97
2023-07-03T06:49:52.113Z,15.01
2023-07-03T06:52:49.099Z,14.78
2023-07-03T06:55:46.005Z,14.67
2023-07-03T06:58:42.925Z,15.07
2023-07-03T07:01:41.327Z,15.08
2023-07-03T07:04:38.360Z,14.97
2023-07-03T07:07:35.253Z,14.94
2023-07-03T07:10:32.108Z,14.93
2023-07-03T07:13:29.026Z,15.18
2023-07-03T07:16:32.926Z,15.22
2023-07-03T07:19:30.006Z,14.98
2023-07-03T07:22:26.971Z,15.10
2023-07-03T07:25:23.905Z,15.20
2023-07-03T07:28:20.883Z,15.26
2023-07-03T07:31:27.275Z,15.39
2023-07-03T07:34:25.318Z,15.34
2023-07-03T07:37:22.168Z,15.73
2023-07-03T07:40:19.070Z,15.56
2023-07-03T07:43:15.921Z,15.79
2023-07-03T07:46:12.807Z,15.62
2023-07-03T07:49:10.467Z,15.45
2023-07-03T07:52:08.058Z,15.39
2023-07-03T07:55:05.725Z,15.38
2023-07-03T07:58:02.553Z,15.48
2023-07-03T08:00:59.462Z,15.45
2023-07-03T08:03:56.556Z,15.60
2023-07-03T08:06:53.801Z,15.61
2023-07-03T08:09:50.768Z,15.53
2023-07-03T08:12:47.685Z,15.26
2023-07-03T08:15:46.767Z,15.23
2023-07-03T08:18:45.669Z,15.13
2023-07-03T08:21:44.593Z,15.32
2023-07-03T08:24:41.445Z,15.52
2023-07-03T08:27:38.433Z,15.60
2023-07-03T08:30:35.462Z,15.91
2023-07-03T08:33:32.420Z,15.78
2023-07-03T08:39:29.647Z,15.74
2023-07-03T08:42:41.085Z,15.90
2023-07-03T08:45:47.573Z,15.88
2023-07-03T08:48:46.202Z,15.68
2023-07-03T08:51:43.995Z,16.01
2023-07-03T08:54:43.185Z,15.86
2023-07-03T08:57:40.545Z,16.49
2023-07-03T09:00:56.544Z,16.62
2023-07-03T09:04:30.598Z,16.45
2023-07-03T09:07:57.415Z,17.02
2023-07-03T09:10:54.846Z,16.82
2023-07-03T09:13:55.954Z,16.93
2023-07-03T09:16:53.191Z,16.76
2023-07-03T09:19:53.866Z,16.61
2023-07-03T09:23:08.252Z,16.70
2023-07-03T09:26:17.236Z,16.84
2023-07-03T09:29:14.140Z,16.70
2023-07-03T09:32:25.847Z,16.93
2023-07-03T09:35:23.836Z,16.80
2023-07-03T09:38:25.845Z,16.82
2023-07-03T09:41:31.725Z,16.65
2023-07-03T09:44:28.623Z,17.22
2023-07-03T09:47:32.610Z,17.12
2023-07-03T09:50:35.763Z,16.91
2023-07-03T09:53:40.632Z,16.66
2023-07-03T09:56:38.899Z,17.23
2023-07-03T09:59:37.419Z,17.87
2023-07-03T10:08:40.589Z,17.47
2023-07-03T10:12:01.362Z,17.27
2023-07-03T10:14:59.456Z,17.61
2023-07-03T10:18:21.670Z,18.80
2023-07-03T10:21:21.702Z,17.55
2023-07-03T10:24:19.517Z,18.04
2023-07-03T10:27:21.152Z,18.61
2023-07-03T10:30:19.867Z,18.51
2023-07-03T10:33:25.370Z,17.75
2023-07-03T10:36:27.232Z,17.32
2023-07-03T10:39:45.609Z,17.25
2023-07-03T10:43:00.225Z,17.07
2023-07-03T10:45:59.995Z,18.32
2023-07-03T10:49:04.618Z,17.58
2023-07-03T10:52:25.140Z,17.33
2023-07-03T10:55:38.089Z,18.08
2023-07-03T10:59:07.569Z,18.59
2023-07-03T11:02:39.668Z,18.49
2023-07-03T11:06:10.094Z,19.03
2023-07-03T11:09:17.926Z,17.54
2023-07-03T11:12:27.712Z,18.51
2023-07-03T11:16:04.276Z,18.12
2023-07-03T11:23:10.433Z,19.65
2023-07-03T11:29:28.762Z,18.40
2023-07-03T11:32:26.885Z,18.69
2023-07-03T11:44:57.187Z,18.24
2023-07-03T11:47:54.390Z,19.07
2023-07-03T11:50:59.240Z,20.58
2023-07-03T11:54:00.314Z,20.42
2023-07-03T11:57:36.970Z,18.73
2023-07-03T12:00:35.678Z,18.05
2023-07-03T12:04:01.163Z,18.32
2023-07-03T12:06:58.115Z,19.82
2023-07-03T12:10:14.927Z,19.59
2023-07-03T12:13:43.040Z,18.61
2023-07-03T12:16:46.387Z,19.17
2023-07-03T12:19:43.267Z,20.83
2023-07-03T12:22:49.419Z,20.25
2023-07-03T12:25:46.269Z,21.33
2023-07-03T12:28:44.018Z,21.40
2023-07-03T12:31:53.431Z,21.32
2023-07-03T12:34:50.356Z,19.77
2023-07-03T12:37:54.099Z,20.32
2023-07-03T12:40:51.025Z,21.49
2023-07-03T12:43:59.968Z,20.91
2023-07-03T12:47:10.864Z,19.50
2023-07-03T12:50:08.616Z,21.40
2023-07-03T12:53:05.587Z,22.06
2023-07-03T12:56:08.410Z,21.70
2023-07-03T12:59:08.315Z,20.39
2023-07-03T13:02:05.261Z,20.07
2023-07-03T13:05:06.865Z,19.48
2023-07-03T13:08:11.528Z,19.50
2023-07-03T13:11:08.861Z,19.54
2023-07-03T13:14:17.864Z,19.16
2023-07-03T13:17:28.156Z,19.20
2023-07-03T13:20:29.096Z,19.06
2023-07-03T13:23:33.364Z,19.98
2023-07-03T13:26:30.266Z,19.60
2023-07-03T13:29:34.252Z,19.20
2023-07-03T13:32:31.094Z,19.92
2023-07-03T13:35:36.468Z,20.16
2023-07-03T13:38:33.430Z,19.09
2023-07-03T13:41:30.458Z,18.97
2023-07-03T13:44:27.721Z,19.29
2023-07-03T13:47:26.629Z,18.88
2023-07-03T13:50:25.583Z,18.89
2023-07-03T13:53:26.506Z,18.78
2023-07-03T13:56:23.494Z,19.06
2023-07-03T13:59:20.355Z,19.60
2023-07-03T14:02:17.314Z,21.00
2023-07-03T14:05:14.614Z,19.68
2023-07-03T14:08:11.520Z,19.46
2023-07-03T14:11:12.886Z,19.13
2023-07-03T14:14:11.013Z,19.59
2023-07-03T14:17:07.979Z,19.46
2023-07-03T14:20:06.635Z,19.45
2023-07-03T14:23:05.345Z,21.14
2023-07-03T14:26:04.506Z,19.72
2023-07-03T14:29:01.360Z,19.99
2023-07-03T14:31:58.433Z,20.04
2023-07-03T14:34:55.335Z,19.57
2023-07-03T14:37:52.294Z,21.41
2023-07-03T14:40:49.182Z,21.83
2023-07-03T14:43:46.039Z,20.34
2023-07-03T14:46:42.964Z,20.73
2023-07-03T14:49:41.204Z,19.82
2023-07-03T14:52:43.979Z,20.69
2023-07-03T14:55:40.836Z,21.05
2023-07-03T14:58:37.671Z,20.26
2023-07-03T15:01:35.917Z,19.83
2023-07-03T15:04:33.087Z,19.55
2023-07-03T15:07:30.089Z,19.87
2023-07-03T15:10:27.202Z,20.60
2023-07-03T15:13:24.114Z,19.64
2023-07-03T15:16:27.702Z,19.99
2023-07-03T15:19:24.586Z,19.41
2023-07-03T15:22:22.025Z,19.07
2023-07-03T15:25:19.588Z,19.21
2023-07-03T15:28:16.637Z,19.36
2023-07-03T15:31:13.976Z,19.71
2023-07-03T15:34:10.862Z,20.59
2023-07-03T15:37:08.482Z,20.05
2023-07-03T15:40:06.626Z,19.54
2023-07-03T15:43:03.522Z,19.11
2023-07-03T15:46:09.479Z,19.73
2023-07-03T15:49:08.448Z,19.76
2023-07-03T15:52:06.566Z,19.43
2023-07-03T15:55:05.414Z,18.96
2023-07-03T15:58:02.369Z,19.08
2023-07-03T16:01:05.056Z,18.88
2023-07-03T16:04:02.994Z,18.98
2023-07-03T16:07:00.230Z,18.72
2023-07-03T16:09:57.042Z,19.22
2023-07-03T16:12:53.870Z,18.65
2023-07-03T16:15:50.915Z,18.56
2023-07-03T16:18:54.116Z,18.73
2023-07-03T16:21:51.040Z,18.80
2023-07-03T16:24:50.741Z,19.35
2023-07-03T16:27:47.737Z,18.73
2023-07-03T16:31:01.209Z,19.09
2023-07-03T16:34:00.986Z,18.95
2023-07-03T16:36:57.864Z,18.74
2023-07-03T16:39:54.698Z,19.14
2023-07-03T16:42:52.511Z,18.94
2023-07-03T16:45:49.724Z,19.01
2023-07-03T16:48:48.689Z,18.79
2023-07-03T16:51:45.515Z,18.97
2023-07-03T16:54:42.391Z,18.91
2023-07-03T16:57:39.261Z,19.04
2023-07-03T17:00:42.255Z,19.07
2023-07-03T17:03:39.826Z,19.12
2023-07-03T17:06:36.783Z,19.03
2023-07-03T17:09:33.663Z,18.82
2023-07-03T17:12:30.559Z,19.15
2023-07-03T17:15:27.421Z,18.85
2023-07-03T17:18:25.466Z,19.05
2023-07-03T17:21:22.340Z,19.49
2023-07-03T17:24:19.237Z,19.51
2023-07-03T17:27:16.124Z,19.49
2023-07-03T17:30:13.207Z,19.32
2023-07-03T17:33:11.294Z,18.91
2023-07-03T17:36:08.562Z,18.96
2023-07-03T17:39:05.439Z,19.12
2023-07-03T17:42:02.281Z,19.27
2023-07-03T17:44:59.131Z,18.87
2023-07-03T17:47:56.035Z,19.07
2023-07-03T17:50:53.655Z,18.69
2023-07-03T17:53:50.628Z,18.61
2023-07-03T17:56:48.003Z,18.84
2023-07-03T17:59:44.895Z,18.80
2023-07-03T18:02:41.909Z,18.54
2023-07-03T18:05:39.062Z,18.30
2023-07-03T18:08:36.590Z,18.26
2023-07-03T18:11:33.448Z,18.32
2023-07-03T18:14:30.322Z,18.57
2023-07-03T18:17:27.460Z,18.60
2023-07-03T18:20:24.361Z,18.58
2023-07-03T18:23:21.209Z,18.19
2023-07-03T18:26:18.074Z,18.24
2023-07-03T18:29:15.140Z,17.97
2023-07-03T18:32:12.969Z,17.88
2023-07-03T18:35:09.931Z,17.89
2023-07-03T18:38:06.840Z,17.83
2023-07-03T18:41:06.703Z,17.83
2023-07-03T18:44:03.571Z,17.79
2023-07-03T18:47:00.435Z,17.79
2023-07-03T18:49:58.426Z,17.75
2023-07-03T18:52:55.307Z,17.53
2023-07-03T18:55:52.456Z,17.62
2023-07-03T18:58:49.762Z,17.46
2023-07-03T19:01:46.627Z,17.33
2023-07-03T19:04:45.882Z,17.40
2023-07-03T19:07:44.795Z,17.16
2023-07-03T19:10:42.288Z,16.94
2023-07-03T19:13:39.410Z,16.80
2023-07-03T19:16:36.613Z,16.94
2023-07-03T19:19:33.560Z,16.66
2023-07-03T19:22:30.511Z,16.33
2023-07-03T19:25:27.348Z,16.28
2023-07-03T19:28:26.031Z,16.26
2023-07-03T19:31:22.945Z,16.12
2023-07-03T19:34:20.105Z,16.06
2023-07-03T19:37:16.945Z,15.94
2023-07-03T19:40:13.802Z,15.69
2023-07-03T19:43:11.443Z,15.62
2023-07-03T19:46:10.603Z,15.60
2023-07-03T19:49:07.496Z,15.62
2023-07-03T19:52:05.068Z,15.47
2023-07-03T19:55:01.906Z,15.30
2023-07-03T19:57:58.790Z,15.07
2023-07-03T20:01:00.761Z,14.99
2023-07-03T20:03:57.729Z,15.20
2023-07-03T20:06:54.655Z,14.88
2023-07-03T20:09:51.495Z,15.00
2023-07-03T20:12:51.881Z,14.87
2023-07-03T20:15:48.853Z,14.56
2023-07-03T20:18:53.683Z,14.76
2023-07-03T20:21:51.402Z,14.74
2023-07-03T20:24:48.447Z,14.54
2023-07-03T20:27:45.738Z,14.35
2023-07-03T20:30:48.512Z,14.30
2023-07-03T20:33:46.824Z,14.14
2023-07-03T20:36:43.670Z,14.24
2023-07-03T20:39:40.514Z,13.90
2023-07-03T20:42:37.365Z,13.98
2023-07-03T20:45:35.040Z,14.11
2023-07-03T20:48:33.080Z,13.52
2023-07-03T20:51:33.660Z,13.72
2023-07-03T20:54:44.452Z,13.60
2023-07-03T20:57:41.420Z,13.73
2023-07-03T21:00:38.326Z,13.53
2023-07-03T21:03:35.320Z,13.42
2023-07-03T21:06:35.421Z,13.51
2023-07-03T21:09:32.313Z,13.16
2023-07-03T21:12:29.262Z,13.36
2023-07-03T21:15:26.170Z,13.52
2023-07-03T21:18:23.117Z,13.42
2023-07-03T21:21:23.474Z,13.30
2023-07-03T21:24:20.319Z,13.27
2023-07-03T21:27:18.589Z,13.28
2023-07-03T21:30:15.582Z,13.28
2023-07-03T21:33:12.461Z,13.01
2023-07-03T21:36:22.406Z,13.20
2023-07-03T21:39:19.236Z,12.90
2023-07-03T21:42:16.102Z,13.19
2023-07-03T21:45:13.006Z,13.15
2023-07-03T21:48:09.861Z,12.94
2023-07-03T21:51:08.834Z,12.75
2023-07-03T21:54:05.692Z,12.67
2023-07-03T21:57:02.541Z,12.97
2023-07-03T21:59:59.389Z,12.78
2023-07-03T22:02:56.520Z,12.73
2023-07-03T22:05:55.237Z,12.59
2023-07-03T22:08:52.502Z,12.47
2023-07-03T22:11:49.361Z,12.68
2023-07-03T22:14:46.213Z,12.55
2023-07-03T22:17:43.078Z,12.29
2023-07-03T22:20:40.901Z,12.62
2023-07-03T22:23:39.437Z,12.61
2023-07-03T22:26:36.298Z,12.41
2023-07-03T22:29:33.387Z,12.56
2023-07-03T22:32:30.727Z,12.49
2023-07-03T22:35:27.734Z,12.58
2023-07-03T22:38:24.648Z,12.56
2023-07-03T22:41:23.409Z,12.47
2023-07-03T22:44:20.366Z,12.52
2023-07-03T22:47:17.197Z,12.31
2023-07-03T22:50:14.129Z,12.45
2023-07-03T22:53:11.533Z,12.26
2023-07-03T22:56:08.527Z,12.45
2023-07-03T22:59:05.407Z,12.26
2023-07-03T23:02:02.294Z,12.28
2023-07-03T23:04:59.171Z,12.38
2023-07-03T23:07:56.805Z,12.07
2023-07-03T23:10:56.084Z,12.43
2023-07-03T23:13:53.250Z,12.15
2023-07-03T23:16:54.756Z,12.12
2023-07-03T23:19:51.916Z,12.11
2023-07-03T23:22:48.759Z,12.35
2023-07-03T23:25:56.983Z,11.88
2023-07-03T23:28:53.828Z,12.19
2023-07-03T23:31:51.920Z,11.71
2023-07-03T23:34:48.805Z,12.23
2023-07-03T23:37:45.652Z,12.25
2023-07-03T23:40:45.820Z,12.21
2023-07-03T23:43:43.687Z,11.91
2023-07-03T23:46:40.794Z,12.17
2023-07-03T23:49:38.431Z,12.03
2023-07-03T23:52:35.272Z,11.88
2023-07-03T23:55:32.617Z,11.95
2023-07-03T23:58:29.524Z,12.09
